createdAt,value
2018-01-23T00:00:46.674Z,2.20
2018-01-23T00:03:14.963Z,2.40
2018-01-23T00:05:43.245Z,2.60
2018-01-23T00:08:11.561Z,2.40
2018-01-23T00:10:39.888Z,2.40
2018-01-23T00:13:08.153Z,2.30
2018-01-23T00:15:36.446Z,2.30
2018-01-23T00:18:04.740Z,2.60
2018-01-23T00:20:33.773Z,2.40
2018-01-23T00:23:02.829Z,2.50
2018-01-23T00:25:31.851Z,2.70
2018-01-23T00:28:00.189Z,2.80
2018-01-23T00:30:28.491Z,2.60
2018-01-23T00:32:56.798Z,2.50
2018-01-23T00:35:25.702Z,2.60
2018-01-23T00:37:53.980Z,2.60
2018-01-23T00:40:22.258Z,2.70
2018-01-23T00:42:50.569Z,2.80
2018-01-23T00:45:19.648Z,2.60
2018-01-23T00:47:47.949Z,2.60
2018-01-23T00:50:17.013Z,2.60
2018-01-23T00:52:45.319Z,2.60
2018-01-23T00:55:13.610Z,2.80
2018-01-23T00:57:41.898Z,2.80
2018-01-23T01:00:10.155Z,2.90
2018-01-23T01:02:38.438Z,2.80
2018-01-23T01:05:06.684Z,2.80
2018-01-23T01:07:34.960Z,3.00
2018-01-23T01:10:03.211Z,2.90
2018-01-23T01:12:31.506Z,2.90
2018-01-23T01:14:59.740Z,2.60
2018-01-23T01:17:27.998Z,2.60
2018-01-23T01:19:56.265Z,2.60
2018-01-23T01:22:24.511Z,2.70
2018-01-23T01:24:52.801Z,2.60
2018-01-23T01:27:21.809Z,2.80
2018-01-23T01:29:50.088Z,2.80
2018-01-23T01:32:18.370Z,2.80
2018-01-23T01:34:46.595Z,2.80
2018-01-23T01:37:14.873Z,2.80
2018-01-23T01:39:43.092Z,2.80
2018-01-23T01:42:11.374Z,2.90
2018-01-23T01:44:39.649Z,2.80
2018-01-23T01:47:07.966Z,2.90
2018-01-23T01:49:36.203Z,3.00
2018-01-23T01:52:04.425Z,2.90
2018-01-23T01:54:32.697Z,2.90
2018-01-23T01:57:00.935Z,2.70
2018-01-23T01:59:29.225Z,2.80
2018-01-23T02:01:57.476Z,2.80
2018-01-23T02:04:25.775Z,2.80
2018-01-23T02:06:53.997Z,2.90
2018-01-23T02:09:23.038Z,2.90
2018-01-23T02:11:51.276Z,2.90
2018-01-23T02:14:19.595Z,2.80
2018-01-23T02:16:47.872Z,2.90
2018-01-23T02:19:16.097Z,3.00
2018-01-23T02:21:45.135Z,2.90
2018-01-23T02:24:13.368Z,2.90
2018-01-23T02:26:42.402Z,2.90
2018-01-23T02:29:10.645Z,2.90
2018-01-23T02:31:38.917Z,2.90
2018-01-23T02:34:07.147Z,3.00
2018-01-23T02:36:35.381Z,2.90
2018-01-23T02:39:03.659Z,2.70
2018-01-23T02:41:31.903Z,2.70
2018-01-23T02:44:00.912Z,2.70
2018-01-23T02:46:29.909Z,2.60
2018-01-23T02:48:58.179Z,2.60
2018-01-23T02:51:27.176Z,2.80
2018-01-23T02:53:55.438Z,2.80
2018-01-23T02:56:24.433Z,2.70
2018-01-23T02:58:53.468Z,2.40
2018-01-23T03:01:21.728Z,2.40
2018-01-23T03:03:49.992Z,2.40
2018-01-23T03:06:18.270Z,2.20
2018-01-23T03:08:46.546Z,2.40
2018-01-23T03:11:14.776Z,2.50
2018-01-23T03:13:43.055Z,2.50
2018-01-23T03:16:11.334Z,1.90
2018-01-23T03:18:39.631Z,2.40
2018-01-23T03:21:08.648Z,2.10
2018-01-23T03:23:36.916Z,2.10
2018-01-23T03:26:05.190Z,2.50
2018-01-23T03:28:33.422Z,2.10
2018-01-23T03:31:01.685Z,2.60
2018-01-23T03:33:29.978Z,2.20
2018-01-23T03:35:58.254Z,1.90
2018-01-23T03:38:26.539Z,1.90
2018-01-23T03:40:54.793Z,2.10
2018-01-23T03:43:23.066Z,2.30
2018-01-23T03:45:51.327Z,2.10
2018-01-23T03:48:19.614Z,1.90
2018-01-23T03:50:47.846Z,1.70
2018-01-23T03:53:16.142Z,1.80
2018-01-23T03:55:44.430Z,1.70
2018-01-23T03:58:12.656Z,1.50
2018-01-23T04:00:40.945Z,1.50
2018-01-23T04:03:09.240Z,1.60
2018-01-23T04:05:37.492Z,2.10
2018-01-23T04:08:05.792Z,1.80
2018-01-23T04:10:34.054Z,2.00
2018-01-23T04:13:02.321Z,2.10
2018-01-23T04:15:30.621Z,2.20
2018-01-23T04:17:58.935Z,2.50
2018-01-23T04:20:27.178Z,2.60
2018-01-23T04:22:55.489Z,2.60
2018-01-23T04:25:23.763Z,2.60
2018-01-23T04:27:51.999Z,2.70
2018-01-23T04:30:20.305Z,2.70
2018-01-23T04:32:48.612Z,2.80
2018-01-23T04:35:16.931Z,3.00
2018-01-23T04:37:45.223Z,2.80
2018-01-23T04:40:13.514Z,2.80
2018-01-23T04:42:41.760Z,2.90
2018-01-23T04:45:10.051Z,3.00
2018-01-23T04:47:38.357Z,3.20
2018-01-23T04:50:07.356Z,2.90
2018-01-23T04:52:36.461Z,3.00
2018-01-23T04:55:05.470Z,2.80
2018-01-23T04:57:33.720Z,5.40
2018-01-23T05:00:02.789Z,2.60
2018-01-23T05:02:31.062Z,2.60
2018-01-23T05:04:59.403Z,2.50
2018-01-23T05:07:27.717Z,2.40
2018-01-23T05:09:55.952Z,2.10
2018-01-23T05:12:24.237Z,1.80
2018-01-23T05:14:53.123Z,2.00
2018-01-23T05:17:21.439Z,2.20
2018-01-23T05:19:49.700Z,2.00
2018-01-23T05:22:18.018Z,2.30
2018-01-23T05:24:47.010Z,2.80
2018-01-23T05:27:16.062Z,1.60
2018-01-23T05:29:45.649Z,2.80
2018-01-23T05:32:13.907Z,2.80
2018-01-23T05:34:42.257Z,2.90
2018-01-23T05:37:10.586Z,2.90
2018-01-23T05:39:38.884Z,2.60
2018-01-23T05:42:07.194Z,2.80
2018-01-23T05:44:36.761Z,3.00
2018-01-23T05:47:05.451Z,3.00
2018-01-23T05:49:39.743Z,3.10
2018-01-23T05:52:08.051Z,3.00
2018-01-23T05:54:38.572Z,2.70
2018-01-23T05:57:07.653Z,2.70
2018-01-23T05:59:36.132Z,2.80
2018-01-23T06:02:04.396Z,3.00
2018-01-23T06:04:32.656Z,3.00
2018-01-23T06:07:00.921Z,2.80
2018-01-23T06:09:29.261Z,3.10
2018-01-23T06:11:57.619Z,3.10
2018-01-23T06:14:25.868Z,2.80
2018-01-23T06:16:54.227Z,3.00
2018-01-23T06:19:22.482Z,3.00
2018-01-23T06:21:51.501Z,3.00
2018-01-23T06:24:19.840Z,3.00
2018-01-23T06:26:48.890Z,2.70
2018-01-23T06:29:17.137Z,2.70
2018-01-23T06:31:46.182Z,2.90
2018-01-23T06:34:15.190Z,2.90
2018-01-23T06:36:43.620Z,3.00
2018-01-23T06:39:11.906Z,3.10
2018-01-23T06:41:40.153Z,3.00
2018-01-23T06:44:09.162Z,2.90
2018-01-23T06:46:37.428Z,2.90
2018-01-23T06:49:06.431Z,3.00
2018-01-23T06:51:34.669Z,3.00
2018-01-23T06:54:03.042Z,2.80
2018-01-23T06:56:31.298Z,2.90
2018-01-23T06:58:59.536Z,3.00
2018-01-23T07:01:27.802Z,3.00
2018-01-23T07:03:56.811Z,3.50
2018-01-23T07:06:25.072Z,3.40
2018-01-23T07:08:53.382Z,3.10
2018-01-23T07:11:22.470Z,3.00
2018-01-23T07:13:50.734Z,3.00
2018-01-23T07:16:19.060Z,3.10
2018-01-23T07:18:47.423Z,3.10
2018-01-23T07:21:15.776Z,3.00
2018-01-23T07:23:44.080Z,2.90
2018-01-23T07:26:12.366Z,2.90
2018-01-23T07:28:40.658Z,3.00
2018-01-23T07:31:08.997Z,3.30
2018-01-23T07:33:37.267Z,3.30
2018-01-23T07:36:05.500Z,3.30
2018-01-23T07:38:34.613Z,3.30
2018-01-23T07:41:02.921Z,3.30
2018-01-23T07:43:31.149Z,3.40
2018-01-23T07:46:00.197Z,3.30
2018-01-23T07:48:28.426Z,3.30
2018-01-23T07:50:56.665Z,3.40
2018-01-23T07:53:25.047Z,3.10
2018-01-23T07:55:54.091Z,3.20
2018-01-23T07:58:22.345Z,3.20
2018-01-23T08:00:50.644Z,3.40
2018-01-23T08:03:18.952Z,3.40
2018-01-23T08:05:47.265Z,3.00
2018-01-23T08:08:15.572Z,2.60
2018-01-23T08:10:43.831Z,2.80
2018-01-23T08:13:12.090Z,2.80
2018-01-23T08:15:41.181Z,2.20
2018-01-23T08:18:10.194Z,2.10
2018-01-23T08:20:38.517Z,2.10
2018-01-23T08:23:06.782Z,2.10
2018-01-23T08:25:35.061Z,2.20
2018-01-23T08:28:03.334Z,2.20
2018-01-23T08:30:31.661Z,2.30
2018-01-23T08:33:00.039Z,2.40
2018-01-23T08:35:29.059Z,2.40
2018-01-23T08:37:57.348Z,2.30
2018-01-23T08:40:25.786Z,2.10
2018-01-23T08:42:54.862Z,2.20
2018-01-23T08:45:23.706Z,2.20
2018-01-23T08:47:51.996Z,2.30
2018-01-23T08:50:20.422Z,2.20
2018-01-23T08:52:48.756Z,2.20
2018-01-23T08:55:17.037Z,2.10
2018-01-23T08:57:45.376Z,2.10
2018-01-23T09:00:14.412Z,2.00
2018-01-23T09:02:42.721Z,2.00
2018-01-23T09:05:11.772Z,2.70
2018-01-23T09:07:40.076Z,2.70
2018-01-23T09:10:08.358Z,2.60
2018-01-23T09:12:36.609Z,2.60
2018-01-23T09:15:04.990Z,2.40
2018-01-23T09:17:33.265Z,2.40
2018-01-23T09:20:01.523Z,2.20
2018-01-23T09:22:29.780Z,2.50
2018-01-23T09:24:58.022Z,2.70
2018-01-23T09:27:27.157Z,2.60
2018-01-23T09:29:55.432Z,2.60
2018-01-23T09:32:23.680Z,2.30
2018-01-23T09:34:52.889Z,2.40
2018-01-23T09:37:21.163Z,2.40
2018-01-23T09:39:49.526Z,2.50
2018-01-23T09:42:18.547Z,2.30
2018-01-23T09:44:46.879Z,2.30
2018-01-23T09:47:15.114Z,2.20
2018-01-23T09:49:43.664Z,1.90
2018-01-23T09:52:12.004Z,2.10
2018-01-23T09:54:40.246Z,2.60
2018-01-23T09:57:08.535Z,2.80
2018-01-23T09:59:36.853Z,2.80
2018-01-23T10:02:05.926Z,2.80
2018-01-23T10:04:34.188Z,2.80
2018-01-23T10:07:02.560Z,2.30
2018-01-23T10:09:30.803Z,2.40
2018-01-23T10:11:59.124Z,2.80
2018-01-23T10:14:27.416Z,2.90
2018-01-23T10:16:55.648Z,2.80
2018-01-23T10:19:23.909Z,2.60
2018-01-23T10:21:52.174Z,3.00
2018-01-23T10:24:20.540Z,3.10
2018-01-23T10:26:49.538Z,2.80
2018-01-23T10:29:17.786Z,2.90
2018-01-23T10:31:46.147Z,2.90
2018-01-23T10:34:14.396Z,3.20
2018-01-23T10:36:42.796Z,3.20
2018-01-23T10:39:11.061Z,3.00
2018-01-23T10:41:39.308Z,3.10
2018-01-23T10:44:07.569Z,3.30
2018-01-23T10:46:35.879Z,3.20
2018-01-23T10:49:04.121Z,3.10
2018-01-23T10:51:32.486Z,3.10
2018-01-23T10:54:01.493Z,3.40
2018-01-23T10:56:29.765Z,3.40
2018-01-23T10:58:58.042Z,3.10
2018-01-23T11:01:32.747Z,3.00
2018-01-23T11:04:01.098Z,3.00
2018-01-23T11:06:29.367Z,2.80
2018-01-23T11:08:57.671Z,2.70
2018-01-23T11:11:25.920Z,2.60
2018-01-23T11:13:54.250Z,2.60
2018-01-23T11:16:23.301Z,3.10
2018-01-23T11:18:51.588Z,3.10
2018-01-23T11:21:19.850Z,3.10
2018-01-23T11:23:48.120Z,3.10
2018-01-23T11:26:16.344Z,3.00
2018-01-23T11:28:45.409Z,2.50
2018-01-23T11:31:13.665Z,2.50
2018-01-23T11:33:41.914Z,2.50
2018-01-23T11:36:10.218Z,2.80
2018-01-23T11:38:38.475Z,3.00
2018-01-23T11:41:06.725Z,3.10
2018-01-23T11:43:35.072Z,2.60
2018-01-23T11:46:03.353Z,2.40
2018-01-23T11:48:32.374Z,2.30
2018-01-23T11:51:00.640Z,2.30
2018-01-23T11:53:29.696Z,2.00
2018-01-23T11:55:57.985Z,2.00
2018-01-23T11:58:26.239Z,1.80
2018-01-23T12:00:54.512Z,1.80
2018-01-23T12:03:22.737Z,1.90
2018-01-23T12:05:50.974Z,2.00
2018-01-23T12:08:19.243Z,2.00
2018-01-23T12:10:47.486Z,2.00
2018-01-23T12:13:15.716Z,1.90
2018-01-23T12:15:44.762Z,1.80
2018-01-23T12:18:13.000Z,1.80
2018-01-23T12:20:42.066Z,1.80
2018-01-23T12:23:10.304Z,1.80
2018-01-23T12:25:39.335Z,1.80
2018-01-23T12:28:07.580Z,1.80
2018-01-23T12:30:35.883Z,1.90
2018-01-23T12:33:04.184Z,1.80
2018-01-23T12:35:33.200Z,1.70
2018-01-23T12:38:01.485Z,1.70
2018-01-23T12:40:29.851Z,1.50
2018-01-23T12:42:58.239Z,1.60
2018-01-23T12:45:26.488Z,1.70
2018-01-23T12:47:55.493Z,1.70
2018-01-23T12:50:23.761Z,1.70
2018-01-23T12:52:52.808Z,1.70
2018-01-23T12:55:21.055Z,1.60
2018-01-23T12:57:49.334Z,1.80
2018-01-23T13:00:17.564Z,1.90
2018-01-23T13:02:45.801Z,1.80
2018-01-23T13:05:14.065Z,1.80
2018-01-23T13:07:42.313Z,1.80
2018-01-23T13:10:10.600Z,1.80
2018-01-23T13:12:38.869Z,1.80
2018-01-23T13:15:07.183Z,1.80
2018-01-23T13:17:35.431Z,1.70
2018-01-23T13:20:03.782Z,1.70
2018-01-23T13:22:32.834Z,1.80
2018-01-23T13:25:01.096Z,1.80
2018-01-23T13:27:29.413Z,1.80
2018-01-23T13:29:58.442Z,1.80
2018-01-23T13:32:27.552Z,1.90
2018-01-23T13:34:55.869Z,1.80
2018-01-23T13:37:24.958Z,1.90
2018-01-23T13:39:54.065Z,1.80
2018-01-23T13:42:22.337Z,1.70
2018-01-23T13:44:50.713Z,1.90
2018-01-23T13:47:18.987Z,1.90
2018-01-23T13:49:47.263Z,1.90
2018-01-23T13:52:15.593Z,1.90
2018-01-23T13:54:43.878Z,1.90
2018-01-23T13:57:12.234Z,1.80
2018-01-23T13:59:40.512Z,1.80
2018-01-23T14:02:08.793Z,1.90
2018-01-23T14:04:37.031Z,1.90
2018-01-23T14:07:05.382Z,2.00
2018-01-23T14:09:33.726Z,2.00
2018-01-23T14:12:02.086Z,1.90
2018-01-23T14:14:30.416Z,2.00
2018-01-23T14:16:59.615Z,1.90
2018-01-23T14:19:27.891Z,1.90
2018-01-23T14:21:56.181Z,1.90
2018-01-23T14:24:25.284Z,1.90
2018-01-23T14:26:53.538Z,1.90
2018-01-23T14:29:21.814Z,1.90
2018-01-23T14:31:50.090Z,2.00
2018-01-23T14:34:18.403Z,2.00
2018-01-23T14:36:47.464Z,1.90
2018-01-23T14:39:15.735Z,1.90
2018-01-23T14:41:44.040Z,1.90
2018-01-23T14:44:13.103Z,2.00
2018-01-23T14:46:41.347Z,2.00
2018-01-23T14:49:09.742Z,2.00
2018-01-23T14:51:37.996Z,1.90
2018-01-23T14:54:06.266Z,2.00
2018-01-23T14:56:34.578Z,2.10
2018-01-23T14:59:02.846Z,2.10
2018-01-23T15:01:31.158Z,1.90
2018-01-23T15:03:59.485Z,2.00
2018-01-23T15:06:27.768Z,2.00
2018-01-23T15:08:56.093Z,2.10
2018-01-23T15:11:25.333Z,2.10
2018-01-23T15:13:54.413Z,2.10
2018-01-23T15:16:22.713Z,2.10
2018-01-23T15:18:50.989Z,2.30
2018-01-23T15:21:19.442Z,2.40
2018-01-23T15:23:47.728Z,2.40
2018-01-23T15:26:16.103Z,2.70
2018-01-23T15:28:44.482Z,2.70
2018-01-23T15:31:12.719Z,2.40
2018-01-23T15:33:41.046Z,2.20
2018-01-23T15:36:09.308Z,2.60
2018-01-23T15:38:37.660Z,2.50
2018-01-23T15:41:06.678Z,2.50
2018-01-23T15:43:35.159Z,2.40
2018-01-23T15:46:03.546Z,2.50
2018-01-23T15:48:31.848Z,2.70
2018-01-23T15:51:00.282Z,2.60
2018-01-23T15:53:28.589Z,2.20
2018-01-23T15:55:56.912Z,2.10
2018-01-23T15:58:25.232Z,2.20
2018-01-23T16:00:53.490Z,2.30
2018-01-23T16:03:21.778Z,2.50
2018-01-23T16:05:50.103Z,2.40
2018-01-23T16:08:18.455Z,2.40
2018-01-23T16:10:46.728Z,2.40
2018-01-23T16:13:14.982Z,2.40
2018-01-23T16:15:44.040Z,2.50
2018-01-23T16:18:13.200Z,2.50
2018-01-23T16:20:41.455Z,2.50
2018-01-23T16:23:09.721Z,2.50
2018-01-23T16:25:38.012Z,2.70
2018-01-23T16:28:06.293Z,3.20
2018-01-23T16:30:34.569Z,3.60
2018-01-23T16:33:02.890Z,3.30
2018-01-23T16:35:31.166Z,2.90
2018-01-23T16:37:59.449Z,3.20
2018-01-23T16:40:27.756Z,3.20
2018-01-23T16:42:56.039Z,3.10
2018-01-23T16:45:25.144Z,3.00
2018-01-23T16:47:53.444Z,3.00
2018-01-23T16:50:21.711Z,3.00
2018-01-23T16:52:49.958Z,2.90
2018-01-23T16:55:18.238Z,3.00
2018-01-23T16:57:46.494Z,2.90
2018-01-23T17:00:14.781Z,2.80
2018-01-23T17:02:43.006Z,2.80
2018-01-23T17:05:11.402Z,3.20
2018-01-23T17:07:39.670Z,3.00
2018-01-23T17:10:07.978Z,3.00
2018-01-23T17:12:36.260Z,2.90
2018-01-23T17:15:04.556Z,3.40
2018-01-23T17:17:32.799Z,3.20
2018-01-23T17:20:01.843Z,3.50
2018-01-23T17:22:30.125Z,3.50
2018-01-23T17:24:58.548Z,3.60
2018-01-23T17:27:27.582Z,3.70
2018-01-23T17:29:55.849Z,3.70
2018-01-23T17:32:24.124Z,3.80
2018-01-23T17:34:52.375Z,3.90
2018-01-23T17:37:20.702Z,3.70
2018-01-23T17:39:48.951Z,3.80
2018-01-23T17:42:17.278Z,3.90
2018-01-23T17:44:45.599Z,3.90
2018-01-23T17:47:14.720Z,3.90
2018-01-23T17:49:43.014Z,3.90
2018-01-23T17:52:11.270Z,4.00
2018-01-23T17:54:39.556Z,4.00
2018-01-23T17:57:07.797Z,4.00
2018-01-23T17:59:36.840Z,3.80
2018-01-23T18:02:05.120Z,3.80
2018-01-23T18:04:33.392Z,4.10
2018-01-23T18:07:01.674Z,3.80
2018-01-23T18:09:29.926Z,3.60
2018-01-23T18:11:58.220Z,3.50
2018-01-23T18:14:26.466Z,3.40
2018-01-23T18:16:54.729Z,3.60
2018-01-23T18:19:22.976Z,3.60
2018-01-23T18:21:51.251Z,3.70
2018-01-23T18:24:32.693Z,3.80
2018-01-23T18:27:01.086Z,3.70
2018-01-23T18:29:29.354Z,3.70
2018-01-23T18:31:57.682Z,3.70
2018-01-23T18:34:25.962Z,3.80
2018-01-23T18:36:54.279Z,3.90
2018-01-23T18:39:23.354Z,4.00
2018-01-23T18:41:51.700Z,4.00
2018-01-23T18:44:20.137Z,3.60
2018-01-23T18:46:48.479Z,3.90
2018-01-23T18:49:16.796Z,3.90
2018-01-23T18:51:45.226Z,3.90
2018-01-23T18:54:13.519Z,3.80
2018-01-23T18:56:41.813Z,3.70
2018-01-23T18:59:10.851Z,3.70
2018-01-23T19:01:39.219Z,3.80
2018-01-23T19:04:08.254Z,3.90
2018-01-23T19:06:37.266Z,3.90
2018-01-23T19:09:05.560Z,3.90
2018-01-23T19:11:33.889Z,3.80
2018-01-23T19:14:02.284Z,3.90
2018-01-23T19:16:30.645Z,3.90
2018-01-23T19:18:58.924Z,3.90
2018-01-23T19:21:27.228Z,3.90
2018-01-23T19:23:55.508Z,3.80
2018-01-23T19:26:23.781Z,3.80
2018-01-23T19:28:52.050Z,3.70
2018-01-23T19:31:20.371Z,3.70
2018-01-23T19:33:48.627Z,3.70
2018-01-23T19:36:17.666Z,3.70
2018-01-23T19:38:45.969Z,3.70
2018-01-23T19:41:14.293Z,3.90
2018-01-23T19:43:43.431Z,3.70
2018-01-23T19:46:11.699Z,3.60
2018-01-23T19:48:39.975Z,3.80
2018-01-23T19:51:08.400Z,3.80
2018-01-23T19:53:36.758Z,3.90
2018-01-23T19:56:05.846Z,3.80
2018-01-23T19:58:34.274Z,3.80
2018-01-23T20:01:03.289Z,3.70
2018-01-23T20:03:31.711Z,3.70
2018-01-23T20:06:00.026Z,3.80
2018-01-23T20:08:28.294Z,3.80
2018-01-23T20:10:57.315Z,3.40
2018-01-23T20:13:25.720Z,3.40
2018-01-23T20:15:55.655Z,3.60
2018-01-23T20:18:23.960Z,3.60
2018-01-23T20:20:52.987Z,3.70
2018-01-23T20:23:21.228Z,3.70
2018-01-23T20:25:50.274Z,3.70
2018-01-23T20:28:18.682Z,3.70
2018-01-23T20:30:47.929Z,3.50
2018-01-23T20:33:16.181Z,3.50
2018-01-23T20:35:45.284Z,3.70
2018-01-23T20:38:14.398Z,3.70
2018-01-23T20:40:42.678Z,4.00
2018-01-23T20:43:11.468Z,2.30
2018-01-23T20:45:39.730Z,3.80
2018-01-23T20:48:07.995Z,3.80
2018-01-23T20:50:36.779Z,3.90
2018-01-23T20:53:05.177Z,3.90
2018-01-23T20:55:33.460Z,4.00
2018-01-23T20:58:01.769Z,4.10
2018-01-23T21:00:30.038Z,4.00
2018-01-23T21:02:58.273Z,4.10
2018-01-23T21:05:26.578Z,4.10
2018-01-23T21:07:54.847Z,4.00
2018-01-23T21:10:23.337Z,4.10
2018-01-23T21:12:51.586Z,4.10
2018-01-23T21:15:19.835Z,4.00
2018-01-23T21:17:48.123Z,4.10
2018-01-23T21:20:16.365Z,4.00
2018-01-23T21:22:44.658Z,4.00
2018-01-23T21:25:12.915Z,4.10
2018-01-23T21:27:41.280Z,4.10
2018-01-23T21:30:09.571Z,4.10
2018-01-23T21:32:37.794Z,3.90
2018-01-23T21:35:06.103Z,4.00
2018-01-23T21:37:34.404Z,4.00
2018-01-23T21:40:02.653Z,4.00
2018-01-23T21:42:30.971Z,3.90
2018-01-23T21:44:59.310Z,4.00
2018-01-23T21:47:27.560Z,4.10
2018-01-23T21:49:55.802Z,4.00
2018-01-23T21:52:24.853Z,4.00
2018-01-23T21:54:53.082Z,3.90
2018-01-23T21:57:21.330Z,4.00
2018-01-23T21:59:50.527Z,4.10
2018-01-23T22:02:19.553Z,4.10
2018-01-23T22:04:47.875Z,4.10
2018-01-23T22:07:16.107Z,4.10
2018-01-23T22:09:44.361Z,4.00
2018-01-23T22:12:13.403Z,4.20
2018-01-23T22:14:41.658Z,4.20
2018-01-23T22:17:09.925Z,4.10
2018-01-23T22:19:38.160Z,4.30
2018-01-23T22:22:06.486Z,4.20
2018-01-23T22:24:35.830Z,4.20
2018-01-23T22:27:04.065Z,4.20
2018-01-23T22:29:32.337Z,4.10
2018-01-23T22:32:00.681Z,4.20
2018-01-23T22:34:28.913Z,4.20
2018-01-23T22:36:57.205Z,4.10
2018-01-23T22:39:25.509Z,4.10
2018-01-23T22:41:54.533Z,4.20
2018-01-23T22:44:22.813Z,4.20
2018-01-23T22:46:51.122Z,4.20
2018-01-23T22:49:19.418Z,4.10
2018-01-23T22:51:48.437Z,4.10
2018-01-23T22:54:16.886Z,4.10
2018-01-23T22:56:45.109Z,4.20
2018-01-23T22:59:13.326Z,4.20
2018-01-23T23:01:41.729Z,4.10
2018-01-23T23:04:09.959Z,4.20
2018-01-23T23:06:38.208Z,4.20
2018-01-23T23:09:06.480Z,4.10
2018-01-23T23:11:34.707Z,4.20
2018-01-23T23:14:03.024Z,4.10
2018-01-23T23:16:31.274Z,4.00
2018-01-23T23:19:00.301Z,4.00
2018-01-23T23:21:28.545Z,4.00
2018-01-23T23:23:57.753Z,4.00
2018-01-23T23:26:26.767Z,4.00
2018-01-23T23:28:55.037Z,4.00
2018-01-23T23:31:23.367Z,4.10
2018-01-23T23:33:51.626Z,4.10
2018-01-23T23:36:20.227Z,4.10
2018-01-23T23:38:48.552Z,4.00
2018-01-23T23:41:16.805Z,4.10
2018-01-23T23:43:45.826Z,4.10
2018-01-23T23:46:14.117Z,4.10
2018-01-23T23:48:42.361Z,4.10
2018-01-23T23:51:10.755Z,4.20
2018-01-23T23:53:39.045Z,4.20
2018-01-23T23:56:07.316Z,4.20
2018-01-23T23:58:35.570Z,3.90
